Aeroporto :
LOGIN :

Iscrizione | Disclaimer

   EN    FR    IT 

 










Sommario :    VFR   VFR Marginale   IFR   IFR Intensivo   IFR Molto Intensivo
Visibilità : 
Base nubi : 
>= 8 km
>= 3000ft
5 / 8 km
1000 / 3000 ft
1500m / 5 km
500 / 1000 ft
800 / 1500m
200 / 500 ft
< 800m
< 200 ft
Simboli :   Temporali  Nebbia  Neve Forte  Precipitazioni Forti  Vento > 20 kt
SIGMETs :   Varie  Temporali  Ghiacco  Turbolenza  Onda orograficha  Ceneri Vulcaniche







- Altitudine del aeroporto : 273 ft


EGXT - RAF Wittering Stamford

ULTIMO METAR :
  • 161550Z AUTO 22004KT 6000 HZ BKN046/// 15/14 Q1014

METARs OBSOLETI :
  • 161507Z 22009KT 6000 HZ FEW014 SCT017 BKN033 15/14 Q1014 WHT
  • 161450Z 20010KT 5000 HZ FEW007 BKN014 BKN027 15/14 Q1014 GRN
  • 161420Z 22011KT 6000 HZ FEW007 BKN014 15/14 Q1014 GRN
  • 161350Z 22008KT 6000 HZ FEW007 BKN015 15/14 Q1014 WHT

TAF TAF EGXT
Valido dal 16 a 15 ore il 16 a 18 ore UTC


161332Z 1615/1618 20007KT 9999 BKN015
PROB30
TEMPO 1615/1616 BKN012
PROB30
TEMPO 1616/1618 FEW012
Nessun NOTAM noto per questo aeroporto.



MetMap, La meteo Aeronautica in un colpo d'occhio ! - Copyright ORBIFLY Dicembre 2007 - Disclaimer

ORBIFLY MET'MAP TEAM :

Programmazione e sviluppo : Alexandra Zaïnal
Concezione e sviluppo : Baudouin d'Aumeries
Co-Programmazione e sviluppo : Marc-Olivier Méhu
Supporto tecnico e logistico : Manuel Goepfert
Aiuto per la traduzione : Arnaldo La Scala

Contatto : metmap@orbifly.com




FONTI E CREDITI :

   NOAA